Time;durP1;ratioP1;P1;durP2;ratioP2;P2;SDS_P1;SDS_P2;PMS_P1;PMS_P2;Temp;Humidity;BMP_temperature;BMP_pressure;BME280_temperature;BME280_humidity;BME280_pressure;Samples;Min_cycle;Max_cycle;Signal;HPM_P1;HPM_P2
2022/09/01 00:02:07;;;;;;;1999.90;999.90;;;;;;;14.98;100.00;93161.34;4920030;29;20205;-62
2022/09/01 00:04:38;;;;;;;1999.90;999.90;;;;;;;14.93;100.00;93167.53;4919783;29;20201;-61
2022/09/01 00:07:05;;;;;;;1999.90;999.90;;;;;;;14.94;100.00;93158.03;4919957;29;20193;-62
2022/09/01 00:09:31;;;;;;;1999.90;999.90;;;;;;;14.92;100.00;93157.78;4920031;29;20277;-61
2022/09/01 00:11:56;;;;;;;1999.90;999.90;;;;;;;14.99;100.00;93160.09;4935647;29;20217;-61
2022/09/01 00:14:29;;;;;;;1999.90;999.90;;;;;;;14.96;100.00;93166.56;4919811;29;20273;-63
2022/09/01 00:16:54;;;;;;;1999.90;999.90;;;;;;;14.92;100.00;93155.03;4919576;29;20277;-61
2022/09/01 00:19:21;;;;;;;1999.90;999.90;;;;;;;14.96;100.00;93158.31;4919755;29;20268;-61
2022/09/01 00:21:47;;;;;;;1999.90;999.90;;;;;;;14.97;100.00;93157.09;4935334;29;20193;-61
2022/09/01 00:24:15;;;;;;;1999.90;999.90;;;;;;;14.97;100.00;93159.81;4935514;29;20193;-61
2022/09/01 00:26:41;;;;;;;1999.90;999.90;;;;;;;14.92;100.00;93155.03;4919993;29;20190;-61
2022/09/01 00:29:06;;;;;;;1999.90;999.90;;;;;;;14.95;100.00;93153.31;4919515;29;20289;-61
2022/09/01 00:31:33;;;;;;;1999.90;999.90;;;;;;;14.88;100.00;93146.25;4919806;29;20193;-61
2022/09/01 00:33:59;;;;;;;1999.90;999.90;;;;;;;14.91;100.00;93153.53;4919877;29;20186;-61
2022/09/01 00:36:24;;;;;;;1999.90;999.90;;;;;;;14.96;100.00;93141.84;4919399;29;20284;-62
2022/09/01 00:38:52;;;;;;;1999.90;999.90;;;;;;;14.88;100.00;93149.00;4919902;29;20280;-62
2022/09/01 00:41:20;;;;;;;1999.90;999.90;;;;;;;14.89;100.00;93145.00;4919334;29;20185;-61
2022/09/01 00:43:49;;;;;;;1999.90;999.90;;;;;;;14.86;100.00;93132.25;4935301;29;20186;-61
2022/09/01 00:46:28;;;;;;;1999.90;999.90;;;;;;;14.88;100.00;93132.53;4919417;29;20256;-61
2022/09/01 00:49:09;;;;;;;1999.90;999.90;;;;;;;14.88;100.00;93121.53;4919876;29;20298;-61
2022/09/01 00:51:37;;;;;;;1999.90;999.90;;;;;;;14.91;100.00;93115.06;4919190;29;20186;-62
2022/09/01 00:54:06;;;;;;;1999.90;999.90;;;;;;;14.85;100.00;93125.25;4935136;29;20193;-63
2022/09/01 00:56:34;;;;;;;1999.90;999.90;;;;;;;14.85;100.00;93119.75;4919844;29;20197;-62
2022/09/01 00:59:00;;;;;;;1999.90;999.90;;;;;;;14.84;100.00;93115.50;4919345;29;20194;-61
2022/09/01 01:01:26;;;;;;;1999.90;999.90;;;;;;;14.90;100.00;93104.56;4921850;29;20182;-61
2022/09/01 01:03:52;;;;;;;1999.90;999.90;;;;;;;14.84;100.00;93115.50;4938380;29;20209;-62
2022/09/01 01:06:22;;;;;;;1999.90;999.90;;;;;;;14.90;100.00;93123.78;4938255;29;20217;-61
2022/09/01 01:08:57;;;;;;;1999.90;999.90;;;;;;;14.85;100.00;93114.25;4922340;29;20220;-62
2022/09/01 01:11:26;;;;;;;1999.90;999.90;;;;;;;14.84;100.00;93118.25;4922742;29;20236;-61
2022/09/01 01:14:09;;;;;;;1999.90;999.90;;;;;;;14.85;100.00;93114.25;4938618;29;20236;-61
2022/09/01 01:16:35;;;;;;;1999.90;999.90;;;;;;;14.83;100.00;93118.72;4922810;29;20182;-61
2022/09/01 01:19:01;;;;;;;1999.90;999.90;;;;;;;14.78;100.00;93117.44;4923066;29;20280;-61
2022/09/01 01:24:30;;;;;;;1999.90;999.90;;;;;;;14.83;100.00;93110.50;4939762;29;20256;-64
2022/09/01 01:26:58;;;;;;;1999.90;999.90;;;;;;;14.73;100.00;93109.91;4938608;29;20205;-62
2022/09/01 01:29:33;;;;;;;1999.90;999.90;;;;;;;14.71;100.00;93108.88;4922766;29;20214;-62
2022/09/01 01:31:59;;;;;;;1999.90;999.90;;;;;;;14.73;100.00;93101.66;4937882;29;20205;-61
2022/09/01 01:34:24;;;;;;;1999.90;999.90;;;;;;;14.69;100.00;93092.88;4922027;29;20197;-61
2022/09/01 01:36:50;;;;;;;1999.90;999.90;;;;;;;14.77;100.00;93080.22;4921898;29;20194;-62
2022/09/01 01:39:24;;;;;;;1999.90;999.90;;;;;;;14.72;100.00;93080.91;4921972;29;20189;-61
2022/09/01 01:41:50;;;;;;;1999.90;999.90;;;;;;;14.74;100.00;93083.91;4922347;29;20190;-61
2022/09/01 01:44:19;;;;;;;1999.90;999.90;;;;;;;14.73;100.00;93079.69;4921867;29;20325;-61
2022/09/01 01:46:48;;;;;;;1999.90;999.90;;;;;;;14.72;100.00;93083.66;4921755;29;20226;-62
2022/09/01 01:49:18;;;;;;;1999.90;999.90;;;;;;;14.76;100.00;93075.97;4937885;29;20306;-61
2022/09/01 01:51:46;;;;;;;1999.90;999.90;;;;;;;14.69;100.00;93086.63;4921798;29;20197;-63
2022/09/01 01:54:12;;;;;;;1999.90;999.90;;;;;;;14.71;100.00;93081.41;4921639;29;20190;-61
2022/09/01 01:56:38;;;;;;;1999.90;999.90;;;;;;;14.79;100.00;93085.97;4921646;29;20209;-61
2022/09/01 01:59:03;;;;;;;1999.90;999.90;;;;;;;14.68;100.00;93096.84;4937401;29;20186;-62
2022/09/01 02:01:30;;;;;;;1999.90;999.90;;;;;;;14.68;100.00;93101.59;4921844;29;20212;-61
2022/09/01 02:03:57;;;;;;;1999.90;999.90;;;;;;;14.63;100.00;93105.81;4922230;29;20193;-61
2022/09/01 02:06:25;;;;;;;1999.90;999.90;;;;;;;14.61;100.00;93108.25;4921471;29;20289;-61
2022/09/01 02:08:56;;;;;;;1999.90;999.90;;;;;;;14.62;100.00;93118.03;4937588;29;20232;-62
2022/09/01 02:11:22;;;;;;;1999.90;999.90;;;;;;;14.71;100.00;93120.59;4937316;29;20194;-61
2022/09/01 02:13:48;;;;;;;1999.90;999.90;;;;;;;14.69;100.00;93125.84;4921505;29;20197;-61
2022/09/01 02:16:15;;;;;;;1999.90;999.90;;;;;;;14.69;100.00;93127.84;4921463;29;20220;-61
2022/09/01 02:18:48;;;;;;;1999.90;999.90;;;;;;;14.71;100.00;93133.59;4920983;29;20190;-61
2022/09/01 02:21:19;;;;;;;1999.90;999.90;;;;;;;14.66;100.00;93137.03;4921694;29;20209;-61
2022/09/01 02:23:47;;;;;;;1999.90;999.90;;;;;;;14.65;100.00;93136.31;4921699;29;20198;-61
2022/09/01 02:26:15;;;;;;;1999.90;999.90;;;;;;;14.61;100.00;93146.72;4937166;29;20219;-60
2022/09/01 02:28:42;;;;;;;1999.90;999.90;;;;;;;14.58;100.00;93144.97;4921091;29;20194;-61
2022/09/01 02:31:09;;;;;;;1999.90;999.90;;;;;;;14.56;100.00;93144.69;4921109;29;20230;-60
2022/09/01 02:33:36;;;;;;;1999.90;999.90;;;;;;;14.53;100.00;93156.63;4920876;29;20276;-60
2022/09/01 02:36:06;;;;;;;1999.90;999.90;;;;;;;14.50;100.00;93168.56;4921179;29;20197;-61
2022/09/01 02:38:32;;;;;;;1999.90;999.90;;;;;;;14.39;100.00;93173.19;4921153;29;20193;-60
2022/09/01 02:41:00;;;;;;;1999.90;999.90;;;;;;;14.41;100.00;93166.00;4921197;29;20185;-60
2022/09/01 02:43:28;;;;;;;1999.90;999.90;;;;;;;14.40;100.00;93159.00;4921164;29;20193;-62
2022/09/01 02:45:58;;;;;;;1999.90;999.90;;;;;;;14.37;100.00;93159.94;4920783;29;20252;-59
2022/09/01 02:48:31;;;;;;;1999.90;999.90;;;;;;;14.32;100.00;93166.16;4921211;29;20213;-60
2022/09/01 02:51:00;;;;;;;1999.90;999.90;;;;;;;14.32;100.00;93163.41;4921376;29;20213;-60
2022/09/01 02:53:27;;;;;;;1999.90;999.90;;;;;;;14.29;100.00;93164.34;4921376;29;20193;-61
2022/09/01 02:55:53;;;;;;;1999.90;999.90;;;;;;;14.20;100.00;93167.19;4920870;29;20216;-60
2022/09/01 02:58:18;;;;;;;1999.90;999.90;;;;;;;14.24;100.00;93151.28;4920687;29;20198;-59
2022/09/01 03:00:45;;;;;;;1999.90;999.90;;;;;;;14.21;100.00;93159.72;4921291;29;20194;-60
2022/09/01 03:03:12;;;;;;;1999.90;999.90;;;;;;;14.19;100.00;93153.94;4936481;29;20197;-59
2022/09/01 03:05:38;;;;;;;1999.90;999.90;;;;;;;14.18;100.00;93152.44;4920834;29;20197;-60
2022/09/01 03:08:09;;;;;;;1999.90;999.90;;;;;;;14.14;100.00;93147.16;4920883;29;20189;-61
2022/09/01 03:10:40;;;;;;;1999.90;999.90;;;;;;;14.09;100.00;93145.09;4921119;29;20217;-60
2022/09/01 03:13:09;;;;;;;1999.90;999.90;;;;;;;14.10;100.00;93135.66;4920990;29;20204;-62
2022/09/01 03:15:36;;;;;;;1999.90;999.90;;;;;;;14.09;100.00;93136.13;4920534;29;20193;-59
2022/09/01 03:18:03;;;;;;;1999.90;999.90;;;;;;;14.06;100.00;93126.09;4920573;29;20194;-60
2022/09/01 03:20:32;;;;;;;1999.90;999.90;;;;;;;14.06;100.00;93113.13;4920586;29;20197;-60
2022/09/01 03:22:59;;;;;;;1999.90;999.90;;;;;;;14.08;100.00;93109.88;4920707;29;20198;-60
2022/09/01 03:25:27;;;;;;;1999.90;999.90;;;;;;;14.05;100.00;93111.63;4936309;29;20186;-60
2022/09/01 03:27:53;;;;;;;1999.90;999.90;;;;;;;14.04;100.00;93104.63;4920178;29;20199;-60
2022/09/01 03:30:19;;;;;;;1999.90;999.90;;;;;;;14.02;100.00;93096.09;4920161;29;20206;-60
2022/09/01 03:32:46;;;;;;;1999.90;999.90;;;;;;;14.02;100.00;93101.59;4920919;29;20193;-60
2022/09/01 03:35:12;;;;;;;1999.90;999.90;;;;;;;14.01;100.00;93100.09;4919921;29;20193;-60
2022/09/01 03:37:38;;;;;;;1999.90;999.90;;;;;;;14.01;100.00;93097.34;4920009;29;20190;-60
2022/09/01 03:40:07;;;;;;;1999.90;999.90;;;;;;;14.03;100.00;93083.91;4920761;29;20200;-60
2022/09/01 03:42:34;;;;;;;1999.90;999.90;;;;;;;14.01;100.00;93089.13;4920150;29;20288;-60
2022/09/01 03:45:08;;;;;;;1999.90;999.90;;;;;;;14.02;100.00;93082.38;4920547;29;20270;-61
2022/09/01 03:47:40;;;;;;;1999.90;999.90;;;;;;;14.04;100.00;93074.44;4920461;29;20201;-62
2022/09/01 03:50:19;;;;;;;1999.90;999.90;;;;;;;14.04;100.00;93066.19;4919749;29;20213;-61
2022/09/01 03:52:48;;;;;;;1999.90;999.90;;;;;;;14.05;100.00;93062.22;4920248;29;20193;-60
2022/09/01 03:55:22;;;;;;;1999.90;999.90;;;;;;;14.02;100.00;93062.44;4920032;29;20204;-60
2022/09/01 03:57:49;;;;;;;1999.90;999.90;;;;;;;14.07;100.00;93050.75;4920025;29;20190;-60
2022/09/01 04:00:19;;;;;;;1999.90;999.90;;;;;;;14.05;100.00;93051.22;4936323;29;20190;-60
2022/09/01 04:02:48;;;;;;;1999.90;999.90;;;;;;;14.04;100.00;93049.72;4935571;29;20256;-60
2022/09/01 04:05:14;;;;;;;1999.90;999.90;;;;;;;14.05;100.00;93040.25;4919793;29;20194;-60
2022/09/01 04:07:39;;;;;;;1999.90;999.90;;;;;;;14.00;100.00;93042.94;4920047;29;20190;-59
2022/09/01 04:10:06;;;;;;;1999.90;999.90;;;;;;;13.96;100.00;93043.16;4920310;29;20288;-60
2022/09/01 04:12:32;;;;;;;1999.90;999.90;;;;;;;13.95;100.00;93041.63;4919619;29;20236;-61
2022/09/01 04:14:58;;;;;;;1999.90;999.90;;;;;;;13.88;100.00;93047.53;4935527;29;20197;-60
2022/09/01 04:20:08;;;;;;;1999.90;999.90;;;;;;;13.83;100.00;93034.50;4936737;29;20251;-61
2022/09/01 04:22:37;;;;;;;1999.90;999.90;;;;;;;13.82;100.00;93033.00;4919570;29;20190;-61
2022/09/01 04:25:04;;;;;;;1999.90;999.90;;;;;;;13.81;100.00;93015.06;4935438;29;20199;-60
2022/09/01 04:27:29;;;;;;;1999.90;999.90;;;;;;;13.79;100.00;93017.50;4935414;29;20249;-60
2022/09/01 04:29:55;;;;;;;1999.90;999.90;;;;;;;13.79;100.00;93019.50;4919517;29;20269;-58
2022/09/01 04:32:23;;;;;;;1999.90;999.90;;;;;;;13.76;100.00;93018.47;4920021;29;20261;-59
2022/09/01 04:34:48;;;;;;;1999.90;999.90;;;;;;;13.75;100.00;93016.97;4920245;29;20189;-61
2022/09/01 04:37:17;;;;;;;1999.90;999.90;;;;;;;13.73;100.00;93013.22;4922819;29;20182;-59
2022/09/01 04:39:51;;;;;;;1999.90;999.90;;;;;;;13.74;100.00;93022.94;4923492;29;20200;-59
2022/09/01 04:42:17;;;;;;;1999.90;999.90;;;;;;;13.71;100.00;93021.91;4922813;29;20190;-60
2022/09/01 04:44:45;;;;;;;1999.90;999.90;;;;;;;13.75;100.00;93016.97;4922839;29;20198;-60
2022/09/01 04:47:16;;;;;;;1999.90;999.90;;;;;;;13.73;100.00;93013.94;4922637;29;20191;-60
2022/09/01 04:49:44;;;;;;;1999.90;999.90;;;;;;;13.76;100.00;93002.00;4922844;29;20268;-60
2022/09/01 04:52:11;;;;;;;1999.90;999.90;;;;;;;13.78;100.00;93001.53;4922256;29;20193;-60
2022/09/01 04:54:37;;;;;;;1999.90;999.90;;;;;;;13.80;100.00;93008.03;4922639;29;20244;-60
2022/09/01 04:57:05;;;;;;;1999.90;999.90;;;;;;;13.81;100.00;93012.31;4922518;29;20182;-59
2022/09/01 04:59:32;;;;;;;1999.90;999.90;;;;;;;13.85;100.00;93007.38;4938045;29;20197;-60
2022/09/01 05:01:59;;;;;;;1999.90;999.90;;;;;;;13.94;100.00;93004.47;4938896;29;20194;-60
2022/09/01 05:04:27;;;;;;;1999.90;999.90;;;;;;;14.03;100.00;92993.34;4922898;29;20334;-60
2022/09/01 05:06:59;;;;;;;1999.90;999.90;;;;;;;14.20;100.00;92980.53;4922172;29;20201;-60
2022/09/01 05:09:27;;;;;;;1999.90;999.90;;;;;;;14.30;100.00;92984.66;4921837;29;20304;-60
2022/09/01 05:11:53;;;;;;;1999.90;999.90;;;;;;;14.45;100.00;92988.03;4922280;29;20194;-59
2022/09/01 05:14:20;;;;;;;1999.90;999.90;;;;;;;14.40;100.00;92999.72;4937839;29;20189;-60
2022/09/01 05:16:46;;;;;;;1999.90;999.90;;;;;;;14.37;100.00;93011.66;4922517;29;20202;-60
2022/09/01 05:19:16;;;;;;;1999.90;999.90;;;;;;;14.37;100.00;93021.88;4921964;29;20186;-60
2022/09/01 05:21:45;;;;;;;1999.90;999.90;;;;;;;14.40;100.00;93032.66;4922440;29;20208;-60
2022/09/01 05:24:15;;;;;;;1999.90;999.90;;;;;;;14.41;100.00;93034.16;4921695;29;20186;-59
2022/09/01 05:26:42;;;;;;;1999.90;999.90;;;;;;;14.48;100.00;93049.44;4937931;29;20253;-59
2022/09/01 05:29:12;;;;;;;1999.90;999.90;;;;;;;14.51;100.00;93073.97;4922033;29;20301;-59
2022/09/01 05:31:39;;;;;;;1999.90;999.90;;;;;;;14.50;100.00;93091.66;4922563;29;20261;-59
2022/09/01 05:34:08;;;;;;;1999.90;999.90;;;;;;;14.43;100.00;93116.84;4921818;29;20214;-59
2022/09/01 05:36:35;;;;;;;1999.90;999.90;;;;;;;14.31;100.00;93142.66;4922043;29;20194;-59
2022/09/01 05:39:00;;;;;;;1999.90;999.90;;;;;;;14.26;100.00;93165.31;4937302;29;20185;-60
2022/09/01 05:41:27;;;;;;;1999.90;999.90;;;;;;;14.58;100.00;93172.44;4921862;29;20265;-58
2022/09/01 05:43:53;;;;;;;1999.90;999.90;;;;;;;14.62;100.00;93214.19;4921809;29;20260;-59
2022/09/01 05:46:22;;;;;;;1999.90;999.90;;;;;;;14.67;100.00;93256.69;4921107;29;20254;-60
2022/09/01 05:48:49;;;;;;;1999.90;999.90;;;;;;;14.82;100.00;93288.34;4936654;29;20201;-59
2022/09/01 05:51:18;;;;;;;1999.90;999.90;;;;;;;14.82;100.00;93346.06;4921854;29;20205;-60
2022/09/01 05:53:45;;;;;;;1999.90;999.90;;;;;;;14.55;100.00;93400.63;4921213;29;20240;-59
2022/09/01 05:56:12;;;;;;;1999.90;999.90;;;;;;;14.88;100.00;93429.34;4937131;29;20190;-59
2022/09/01 05:58:39;;;;;;;1999.90;999.90;;;;;;;15.50;100.00;93451.69;4921493;29;20185;-60
2022/09/01 06:01:06;;;;;;;1999.90;999.90;;;;;;;15.86;100.00;93500.69;4921576;29;20251;-60
2022/09/01 06:03:32;;;;;;;1999.90;999.90;;;;;;;16.22;100.00;93566.16;4921060;29;20182;-59
2022/09/01 06:06:07;;;;;;;1999.90;999.90;;;;;;;16.50;100.00;93634.66;4921517;29;20204;-60
2022/09/01 06:08:34;;;;;;;1999.90;999.90;;;;;;;16.64;100.00;93686.91;4921506;29;20229;-59
2022/09/01 06:11:00;;;;;;;1999.90;999.90;;;;;;;16.43;100.00;93746.78;4937134;29;20229;-59
2022/09/01 06:13:26;;;;;;;1999.90;999.90;;;;;;;16.63;100.00;93786.63;4921205;29;20268;-59
2022/09/01 06:15:52;;;;;;;1999.90;999.90;;;;;;;16.34;100.00;93821.31;4921452;29;20263;-59
2022/09/01 06:18:20;;;;;;;1999.90;999.90;;;;;;;16.37;100.00;93847.91;4920982;29;20193;-59
2022/09/01 06:20:46;;;;;;;1999.90;999.90;;;;;;;16.12;100.00;93870.53;4921065;29;20269;-59
2022/09/01 06:23:16;;;;;;;1999.90;999.90;;;;;;;15.75;100.00;93896.16;4921246;29;20253;-60
2022/09/01 06:25:45;;;;;;;1999.90;999.90;;;;;;;15.50;100.00;93916.69;4920999;29;20189;-59
2022/09/01 06:28:20;;;;;;;1999.90;999.90;;;;;;;15.59;100.00;93888.34;4936671;29;20192;-60
2022/09/01 06:30:47;;;;;;;1999.90;999.90;;;;;;;15.44;100.00;93882.81;4921032;29;20212;-59
2022/09/01 06:33:14;;;;;;;1999.90;999.90;;;;;;;15.49;100.00;93882.16;4921382;29;20220;-60
2022/09/01 06:35:43;;;;;;;1999.90;999.90;;;;;;;15.68;100.00;93875.25;4921100;29;20182;-60
2022/09/01 06:38:11;;;;;;;1999.90;999.90;;;;;;;15.53;100.00;93896.50;4921073;29;20276;-59
2022/09/01 06:40:41;;;;;;;1999.90;999.90;;;;;;;15.83;100.00;93898.06;4921018;29;20189;-59
2022/09/01 06:43:07;;;;;;;1999.90;999.90;;;;;;;15.59;100.00;93911.09;4920984;29;20225;-60
2022/09/01 06:45:39;;;;;;;1999.90;999.90;;;;;;;15.26;100.00;93910.41;4921268;29;20198;-59
2022/09/01 06:48:05;;;;;;;1999.90;999.90;;;;;;;15.23;100.00;93916.09;4921075;29;20210;-58
2022/09/01 06:50:30;;;;;;;1999.90;999.90;;;;;;;15.51;100.00;93918.22;4921082;29;20221;-58
2022/09/01 06:53:09;;;;;;;1999.90;999.90;;;;;;;15.56;100.00;93911.31;4920541;29;20257;-58
2022/09/01 06:55:40;;;;;;;1999.90;999.90;;;;;;;15.60;100.00;93918.16;4921057;29;20225;-58
2022/09/01 06:58:08;;;;;;;1999.90;999.90;;;;;;;15.56;100.00;93925.81;4920059;29;20207;-60
2022/09/01 07:00:40;;;;;;;1999.90;999.90;;;;;;;15.73;100.00;93937.13;4920536;29;20193;-58
2022/09/01 07:03:08;;;;;;;1999.90;999.90;;;;;;;15.70;100.00;93938.84;4936825;29;20199;-59
2022/09/01 07:05:37;;;;;;;1999.90;999.90;;;;;;;15.46;100.00;93960.16;4936728;29;20190;-58
2022/09/01 07:08:07;;;;;;;1999.90;999.90;;;;;;;15.34;100.00;93972.09;4921165;29;20193;-58
2022/09/01 07:10:32;;;;;;;1999.90;999.90;;;;;;;15.32;100.00;93974.56;4920509;29;20214;-59
2022/09/01 07:13:00;;;;;;;1999.90;999.90;;;;;;;15.60;100.00;93973.19;4921180;29;20225;-58
2022/09/01 07:15:26;;;;;;;1999.90;999.90;;;;;;;15.64;100.00;93984.78;4920499;29;20193;-58
2022/09/01 07:17:55;;;;;;;1999.90;999.90;;;;;;;15.82;100.00;93984.66;4920658;29;20197;-59
2022/09/01 07:20:24;;;;;;;1999.90;999.90;;;;;;;16.17;100.00;93990.28;4936096;29;20197;-59
2022/09/01 07:22:51;;;;;;;1999.90;999.90;;;;;;;16.12;100.00;94018.50;4920440;29;20204;-59
2022/09/01 07:25:17;;;;;;;1999.90;999.90;;;;;;;16.06;100.00;94037.69;4936181;29;20194;-58
2022/09/01 07:27:50;;;;;;;1999.90;999.90;;;;;;;16.25;100.00;94050.06;4920523;29;20196;-58
2022/09/01 07:30:20;;;;;;;1999.90;999.90;;;;;;;16.58;100.00;94060.22;4920323;29;20214;-59
2022/09/01 07:32:47;;;;;;;1999.90;999.90;;;;;;;16.75;100.00;94108.91;4920401;29;20252;-58
2022/09/01 07:35:17;;;;;;;1999.90;999.90;;;;;;;17.12;100.00;94120.34;4919994;29;20196;-59
2022/09/01 07:37:43;;;;;;;1999.90;999.90;;;;;;;16.84;100.00;94155.72;4935942;29;20202;-58
2022/09/01 07:40:11;;;;;;;1999.90;999.90;;;;;;;16.72;100.00;94176.03;4920567;29;20205;-59
2022/09/01 07:42:40;;;;;;;1999.90;999.90;;;;;;;16.76;100.00;94187.66;4920258;29;20202;-58
2022/09/01 07:45:07;;;;;;;1999.90;999.90;;;;;;;16.48;100.00;94204.84;4920391;29;20286;-57
2022/09/01 07:47:35;;;;;;;1999.90;999.90;;;;;;;16.60;100.00;94201.84;4936048;29;20193;-58
2022/09/01 07:50:06;;;;;;;1999.90;999.90;;;;;;;17.60;100.00;94176.88;4920425;29;20316;-58
2022/09/01 07:52:35;;;;;;;1999.90;999.90;;;;;;;17.63;100.00;94214.59;4920329;29;20261;-59
2022/09/01 07:55:01;;;;;;;1999.90;999.90;;;;;;;18.52;100.00;94209.16;4920613;29;20201;-59
2022/09/01 07:57:27;;;;;;;1999.90;999.90;;;;;;;18.27;100.00;94251.25;4919444;29;20232;-58
2022/09/01 07:59:54;;;;;;;1999.90;999.90;;;;;;;18.17;100.00;94283.03;4919547;29;20213;-59
2022/09/01 08:02:20;;;;;;;1999.90;999.90;;;;;;;17.63;100.00;94341.59;4919365;29;20241;-60
2022/09/01 08:04:45;;;;;;;1999.90;999.90;;;;;;;18.20;100.00;94354.69;4919404;29;20190;-58
2022/09/01 08:07:11;;;;;;;1999.90;999.90;;;;;;;18.87;100.00;94356.50;4919929;29;20285;-58
2022/09/01 08:09:37;;;;;;;1999.90;999.90;;;;;;;18.38;100.00;94389.66;4919059;29;20217;-58
2022/09/01 08:12:04;;;;;;;1999.90;999.90;;;;;;;18.22;100.00;94398.44;4919102;29;20198;-58
2022/09/01 08:14:30;;;;;;;1999.90;999.90;;;;;;;18.26;100.00;94410.06;4935598;29;20234;-58
2022/09/01 08:16:56;;;;;;;1999.90;999.90;;;;;;;18.49;100.00;94406.44;4919708;29;20185;-57
2022/09/01 08:19:21;;;;;;;1999.90;999.90;;;;;;;19.18;100.00;94406.50;4935581;29;20189;-58
2022/09/01 08:21:47;;;;;;;1999.90;999.90;;;;;;;18.97;100.00;94451.97;4919827;29;20189;-58
2022/09/01 08:24:13;;;;;;;1999.90;999.90;;;;;;;18.62;100.00;94462.97;4919498;29;20185;-58
2022/09/01 08:26:39;;;;;;;1999.90;999.90;;;;;;;18.40;100.00;94459.84;4920087;29;20189;-58
2022/09/01 08:29:04;;;;;;;1999.90;999.90;;;;;;;18.77;100.00;94468.53;4935243;29;20209;-57
2022/09/01 08:31:30;;;;;;;1999.90;999.90;;;;;;;18.89;100.00;94470.22;4935261;29;20189;-57
2022/09/01 08:33:58;;;;;;;1999.90;999.90;;;;;;;19.31;100.00;94470.66;4919344;29;20192;-57
2022/09/01 08:36:24;;;;;;;1999.90;999.90;;;;;;;19.45;100.00;94475.41;4935476;29;20182;-58
2022/09/01 08:38:51;;;;;;;1999.90;999.90;;;;;;;19.58;100.00;94500.75;4919183;29;20190;-58
2022/09/01 08:41:43;;;;;;;1999.90;999.90;;;;;;;19.52;100.00;94504.69;4918963;29;20189;-58
2022/09/01 08:44:21;;;;;;;1999.90;999.90;;;;;;;19.10;100.00;94529.94;4920008;29;20221;-58
2022/09/01 08:46:48;;;;;;;1999.90;999.90;;;;;;;18.75;100.00;94540.94;4935104;29;20185;-57
2022/09/01 08:49:22;;;;;;;1999.90;999.90;;;;;;;19.18;100.00;94520.00;4919148;29;20210;-58
2022/09/01 08:51:59;;;;;;;1999.90;999.90;;;;;;;19.50;100.00;94527.31;4918977;29;20178;-58
2022/09/01 08:54:33;;;;;;;1999.90;999.90;;;;;;;19.67;100.00;94527.56;4934505;29;20185;-58
2022/09/01 08:57:15;;;;;;;1999.90;999.90;;;;;;;19.29;100.00;94545.13;4934651;29;20196;-58
2022/09/01 08:59:41;;;;;;;1999.90;999.90;;;;;;;19.31;100.00;94556.50;4918895;29;20223;-58
2022/09/01 09:02:40;;;;;;;1999.90;999.90;;;;;;;18.88;100.00;94587.69;4918489;29;20189;-61
2022/09/01 09:05:05;;;;;;;1999.90;999.90;;;;;;;19.19;100.00;94551.97;4934847;29;20249;-58
2022/09/01 09:07:57;;;;;;;1999.90;999.90;;;;;;;19.49;100.00;94554.25;4934660;29;20189;-58
2022/09/01 09:10:31;;;;;;;1999.90;999.90;;;;;;;19.31;100.00;94564.81;4918580;29;20210;-58
2022/09/01 09:13:03;;;;;;;1999.90;999.90;;;;;;;19.80;100.00;94573.09;4919552;29;20178;-59
2022/09/01 09:16:00;;;;;;;1999.90;999.90;;;;;;;18.91;100.00;94597.81;4935573;29;20194;-58
2022/09/01 09:18:44;;;;;;;1999.90;999.90;;;;;;;19.29;100.00;94578.34;4934678;29;20190;-58
2022/09/01 09:21:21;;;;;;;1999.90;999.90;;;;;;;19.25;100.00;94583.31;4935170;29;20190;-58
2022/09/01 09:23:55;;;;;;;1999.90;999.90;;;;;;;19.55;100.00;94584.81;4921964;29;20182;-58
2022/09/01 09:26:20;;;;;;;1999.90;999.90;;;;;;;20.19;100.00;94588.28;4922088;29;20193;-58
2022/09/01 09:28:48;;;;;;;1999.90;999.90;;;;;;;19.72;100.00;94610.75;4922091;29;20201;-58
2022/09/01 09:31:24;;;;;;;1999.90;999.90;;;;;;;19.56;100.00;94641.75;4937615;29;20182;-59
2022/09/01 09:33:49;;;;;;;1999.90;999.90;;;;;;;20.11;100.00;94617.66;4937886;29;20192;-58
2022/09/01 09:36:22;;;;;;;1999.90;999.90;;;;;;;19.95;100.00;94637.56;4921805;29;20193;-58
2022/09/01 09:39:05;;;;;;;1999.90;999.90;;;;;;;19.45;100.00;94653.41;4922202;29;20186;-58
2022/09/01 09:41:31;;;;;;;1999.90;999.90;;;;;;;19.53;100.00;94648.25;4937411;29;20193;-57
2022/09/01 09:44:42;;;;;;;1999.90;999.90;;;;;;;19.20;100.00;94653.94;4921980;29;20186;-58
2022/09/01 09:47:09;;;;;;;1999.90;999.90;;;;;;;19.46;100.00;94634.78;4883307;29;20262;-59
2022/09/01 09:49:35;;;;;;;1999.90;999.90;;;;;;;19.29;100.00;94642.03;4882969;29;20216;-60
2022/09/01 09:52:01;;;;;;;1999.90;999.90;;;;;;;19.82;100.00;94614.97;4917633;29;20206;-60
2022/09/01 09:54:33;;;;;;;1999.90;999.90;;;;;;;20.33;100.00;94600.53;4936901;29;20193;-60
2022/09/01 09:57:08;;;;;;;1999.90;999.90;;;;;;;20.28;100.00;94602.00;4921359;29;20204;-59
2022/09/01 09:59:45;;;;;;;1999.90;999.90;;;;;;;20.14;100.00;94597.28;4936935;29;20597;-59
2022/09/01 10:02:26;;;;;;;1999.90;999.90;;;;;;;20.57;100.00;94593.53;4937739;29;20190;-60
2022/09/01 10:04:52;;;;;;;1999.90;999.90;;;;;;;20.46;100.00;94700.81;4937945;29;20201;-58
2022/09/01 10:07:34;;;;;;;1999.90;999.90;;;;;;;21.89;100.00;94803.34;4921443;29;20280;-59
2022/09/01 10:10:05;;;;;;;1999.90;999.90;;;;;;;21.47;100.00;94716.97;4937614;29;20240;-59
2022/09/01 10:12:32;;;;;;;1999.90;999.90;;;;;;;22.38;100.00;94452.38;4921823;29;20194;-59
2022/09/01 10:15:00;;;;;;;1999.90;999.90;;;;;;;22.74;100.00;94597.50;4921754;29;20193;-60
2022/09/01 10:17:33;;;;;;;1999.90;999.90;;;;;;;22.75;100.00;94582.31;4937561;29;20200;-59
2022/09/01 10:20:07;;;;;;;1999.90;999.90;;;;;;;22.61;100.00;94410.69;4937395;29;20451;-59
2022/09/01 10:22:35;;;;;;;1999.90;999.90;;;;;;;22.04;100.00;94500.81;4921201;29;20189;-59
2022/09/01 10:25:01;;;;;;;1999.90;999.90;;;;;;;21.93;100.00;94506.31;4921061;29;20245;-59
2022/09/01 10:27:31;;;;;;;1999.90;999.90;;;;;;;22.08;100.00;94470.72;4921449;29;20198;-59
2022/09/01 10:30:05;;;;;;;1999.90;999.90;;;;;;;21.43;100.00;94501.69;4921112;29;20261;-59
2022/09/01 10:32:41;;;;;;;1999.90;999.90;;;;;;;21.26;100.00;94498.03;4920935;29;20193;-58
2022/09/01 10:35:13;;;;;;;1999.90;999.90;;;;;;;21.10;100.00;94524.44;4921372;29;20233;-58
2022/09/01 10:37:39;;;;;;;1999.90;999.90;;;;;;;21.96;100.00;94552.59;4937079;29;20190;-58
2022/09/01 10:40:09;;;;;;;1999.90;999.90;;;;;;;23.15;100.00;94598.63;4921219;29;20190;-59
2022/09/01 10:42:35;;;;;;;1999.90;999.90;;;;;;;23.76;100.00;94621.75;4936668;29;20197;-59
2022/09/01 10:45:01;;;;;;;1999.90;999.90;;;;;;;24.31;100.00;94652.44;4937004;29;20226;-59
2022/09/01 10:47:32;;;;;;;1999.90;999.90;;;;;;;22.91;100.00;94662.38;4936735;29;20182;-59
2022/09/01 10:50:24;;;;;;;1999.90;999.90;;;;;;;22.07;100.00;94624.97;4936628;29;20229;-59
2022/09/01 10:52:59;;;;;;;1999.90;999.90;;;;;;;21.59;100.00;94660.25;4936385;29;20219;-59
2022/09/01 10:55:44;;;;;;;1999.90;999.90;;;;;;;21.94;100.00;94676.72;4921096;29;20194;-58
2022/09/01 10:58:31;;;;;;;1999.90;999.90;;;;;;;22.66;100.00;94685.56;4936672;29;20193;-58
2022/09/01 11:01:01;;;;;;;1999.90;999.90;;;;;;;21.97;100.00;94707.09;4937064;29;20186;-59
2022/09/01 11:03:35;;;;;;;1999.90;999.90;;;;;;;22.70;100.00;94752.91;4921023;29;20189;-59